Terminal Aerodrome Forecast
Issued by NWS Portland, OR

Home | Current Version | Previous Version | Text Only | Print | Product List | Glossary On
Versions: 1 2 3 4 5 6 7 8 9 10 11 12 13 14 15 16 17 18 19 20 21 22 23 24 25 26 27 28 29 30 31 32 33 34
000
FTUS46 KPQR 191735
TAFTTD
TAF
KTTD 191735Z 1918/2018 12007KT P6SM -SHRA FEW030 SCT060
     FM200400 10006KT P6SM VCSH SCT030 OVC060
     FM200900 10015KT 6SM -RA BR FEW030 OVC050
     FM201200 10015G25KT 6SM -RA BR FEW015 SCT030 OVC050=

USA.gov is the U.S. government's official web portal to all federal, state and local government web resources and services.